FCBB/BZV METAR and TAF weather

Enter ICAO airport designator
Station Type Date Time Source
FCBB METAR 2019/06/18 13:00 UTC NOAA

FCBB 181300Z 20004KT 150V270 9000 NSC 31/19 Q1014 NOSIG


Station Type Date Time Source
FCBB Decoded METAR 2019/06/18 13:00 UTC NOAA

Brazzaville / Maya-Maya, Congo, Republic of the (FCBB) 04-15S 015-15E 316M
Jun 18, 2019 - 09:00 AM EDT / 2019.06.18 1300 UTC
Wind: from the SSW (200 degrees) at 5 MPH (4 KT) (direction variable):0
Visibility: 5 mile(s):0
Temperature: 87 F (31 C)
Dew Point: 66 F (19 C)
Relative Humidity: 48%
Pressure (altimeter): 29.94 in. Hg (1014 hPa)
ob: FCBB 181300Z 20004KT 150V270 9000 NSC 31/19 Q1014 NOSIG
cycle: 13

Station Type Date Time Source
FCBB TAF 2019/06/18 18:21 UTC NOAA

TAF TAF FCBB 181700Z 1818/1924 26003KT 7000 FEW016 PROB30 1904/1908 3000 BR

Example: see airport list